Time;durP1;ratioP1;P1;durP2;ratioP2;P2;SDS_P1;SDS_P2;PMS_P1;PMS_P2;Temp;Humidity;BMP_temperature;BMP_pressure;BME280_temperature;BME280_humidity;BME280_pressure;Samples;Min_cycle;Max_cycle;Signal;HPM_P1;HPM_P2
2022/06/03 00:00:23;;;;;;;6.65;5.93;;;;;;;12.05;68.46;101852.22;4993530;28;20072;-74
2022/06/03 00:03:21;;;;;;;7.75;6.13;;;;;;;11.99;67.54;101853.47;5002523;28;20049;-73
2022/06/03 00:06:24;;;;;;;6.65;5.70;;;;;;;11.98;68.39;101859.00;4996544;28;20042;-70
2022/06/03 00:09:08;;;;;;;7.45;6.13;;;;;;;11.95;67.76;101859.22;4993407;28;20038;-74
2022/06/03 00:11:49;;;;;;;7.75;6.00;;;;;;;11.93;68.65;101861.16;4992166;28;20054;-74
2022/06/03 00:14:51;;;;;;;8.15;5.88;;;;;;;11.91;67.76;101857.66;5009419;28;20049;-73
2022/06/03 00:17:26;;;;;;;7.18;6.03;;;;;;;11.88;69.12;101855.97;4999884;28;20125;-68
2022/06/03 00:20:28;;;;;;;6.60;5.90;;;;;;;11.87;68.10;101854.22;5002582;28;20050;-73
2022/06/03 00:23:17;;;;;;;7.70;5.80;;;;;;;11.81;68.78;101850.97;4999832;28;20199;-71
2022/06/03 00:25:54;;;;;;;7.75;5.68;;;;;;;11.81;68.80;101854.59;5009753;28;20068;-74
2022/06/03 00:28:42;;;;;;;8.10;6.25;;;;;;;11.81;68.04;101854.59;5007019;28;20038;-73
2022/06/03 00:31:28;;;;;;;7.60;5.95;;;;;;;11.77;69.29;101850.28;5007631;28;20501;-73
2022/06/03 00:34:25;;;;;;;7.85;5.65;;;;;;;11.76;69.10;101848.53;5005297;28;20365;-73
2022/06/03 00:37:08;;;;;;;7.05;6.35;;;;;;;11.73;68.71;101848.72;5011054;28;20033;-73
2022/06/03 00:39:54;;;;;;;11.75;6.10;;;;;;;11.67;68.97;101843.66;4997385;28;20050;-73
2022/06/03 00:42:35;;;;;;;8.68;5.75;;;;;;;11.67;69.26;101844.53;4998067;28;20045;-73
2022/06/03 00:45:28;;;;;;;9.13;6.10;;;;;;;11.63;70.38;101845.69;4992127;28;20041;-73
2022/06/03 00:48:33;;;;;;;7.22;5.88;;;;;;;11.63;68.65;101847.53;4999527;28;20064;-69
2022/06/03 00:51:20;;;;;;;7.40;5.63;;;;;;;11.56;70.26;101841.56;5010400;28;20034;-73
2022/06/03 00:54:09;;;;;;;10.38;6.45;;;;;;;11.56;68.93;101847.00;5011202;28;20041;-74
2022/06/03 00:56:54;;;;;;;8.15;6.53;;;;;;;11.53;69.63;101835.44;4996969;28;20397;-71
2022/06/03 00:59:50;;;;;;;8.65;6.25;;;;;;;11.52;68.91;101831.84;5009772;28;20386;-73
2022/06/03 01:02:28;;;;;;;9.60;6.10;;;;;;;11.53;68.99;101838.16;4978917;28;20038;-74
2022/06/03 01:05:14;;;;;;;7.30;5.93;;;;;;;11.52;69.15;101839.09;5006918;28;20431;-74
2022/06/03 01:07:40;;;;;;;7.15;6.20;;;;;;;11.50;70.12;101837.34;5010556;28;20038;-74
2022/06/03 01:10:31;;;;;;;7.47;6.28;;;;;;;11.47;72.50;101837.56;5001459;28;20028;-73
2022/06/03 01:13:12;;;;;;;8.57;6.72;;;;;;;11.45;70.15;101830.44;5003715;28;20509;-73
2022/06/03 01:15:47;;;;;;;6.40;5.80;;;;;;;11.47;69.99;101837.56;5009066;28;20084;-73
2022/06/03 01:18:20;;;;;;;8.65;6.53;;;;;;;11.44;70.24;101832.28;4991714;28;20177;-72
2022/06/03 01:21:00;;;;;;;7.65;5.90;;;;;;;11.44;71.97;101825.97;5009949;28;20835;-71
2022/06/03 01:23:31;;;;;;;7.72;6.80;;;;;;;11.43;72.83;101824.22;5009031;28;20179;-73
2022/06/03 01:26:15;;;;;;;7.65;6.22;;;;;;;11.43;71.17;101821.50;4995789;28;20041;-73
2022/06/03 01:29:09;;;;;;;7.85;6.03;;;;;;;11.47;71.35;101823.94;5009150;28;20041;-73
2022/06/03 01:31:56;;;;;;;12.32;6.75;;;;;;;11.48;72.46;101811.19;5003188;28;20429;-73
2022/06/03 01:34:46;;;;;;;8.18;6.65;;;;;;;11.47;70.65;101803.97;4976061;28;20120;-73
2022/06/03 01:37:44;;;;;;;9.00;6.95;;;;;;;11.49;70.14;101804.75;5009744;28;20033;-73
2022/06/03 01:40:31;;;;;;;9.65;6.70;;;;;;;11.50;70.14;101809.22;4991281;28;20056;-72
2022/06/03 01:43:18;;;;;;;9.45;6.47;;;;;;;11.51;69.91;101805.53;4995584;28;20514;-72
2022/06/03 01:46:20;;;;;;;7.03;6.32;;;;;;;11.52;69.47;101800.94;5009405;28;20099;-71
2022/06/03 01:48:58;;;;;;;8.13;6.85;;;;;;;11.49;72.27;101804.75;5001008;28;20049;-70
2022/06/03 01:51:45;;;;;;;8.75;6.50;;;;;;;11.45;71.82;101795.00;4991742;28;20105;-73
2022/06/03 01:54:56;;;;;;;11.15;6.55;;;;;;;11.46;71.06;101799.50;5004025;28;20049;-73
2022/06/03 01:57:34;;;;;;;7.57;6.78;;;;;;;11.40;71.64;101798.00;4992178;28;20038;-73
2022/06/03 02:00:18;;;;;;;8.40;6.40;;;;;;;11.39;72.19;101789.94;4994858;28;20045;-73
2022/06/03 02:02:49;;;;;;;9.32;7.47;;;;;;;11.31;72.38;101793.13;4986641;28;20045;-72
2022/06/03 02:05:28;;;;;;;9.70;7.22;;;;;;;11.28;72.05;101796.03;4991149;28;20252;-73
2022/06/03 02:08:10;;;;;;;8.38;6.68;;;;;;;11.27;71.79;101797.00;4991504;28;20076;-73
2022/06/03 02:10:42;;;;;;;9.70;7.10;;;;;;;11.28;71.90;101793.28;5002942;28;20088;-73
2022/06/03 02:13:13;;;;;;;7.55;6.40;;;;;;;11.27;72.99;101786.09;5008518;28;20466;-71
2022/06/03 02:16:05;;;;;;;8.95;7.10;;;;;;;11.27;73.14;101780.66;4995129;28;20037;-73
2022/06/03 02:18:36;;;;;;;10.68;7.20;;;;;;;11.22;73.51;101780.06;4991219;28;20070;-73
2022/06/03 02:21:23;;;;;;;8.43;7.07;;;;;;;11.21;72.46;101778.31;5009059;28;20041;-73
2022/06/03 02:24:24;;;;;;;10.27;6.97;;;;;;;11.23;70.96;101784.53;4994482;28;20065;-73
2022/06/03 02:27:18;;;;;;;10.00;7.57;;;;;;;11.20;71.50;101782.00;4963263;28;20057;-73
2022/06/03 02:33:17;;;;;;;8.93;7.72;;;;;;;11.21;71.64;101778.31;4997222;28;20038;-73
2022/06/03 02:36:36;;;;;;;8.75;6.82;;;;;;;11.18;71.94;101776.63;4995839;28;20500;-73
2022/06/03 02:39:25;;;;;;;8.43;7.35;;;;;;;11.13;72.39;101778.75;4966815;28;20129;-73
2022/06/03 02:42:17;;;;;;;7.80;6.80;;;;;;;11.12;72.40;101782.47;5003147;28;20485;-73
2022/06/03 02:45:15;;;;;;;13.73;7.57;;;;;;;11.09;72.62;101777.19;4962765;28;20065;-72
2022/06/03 02:48:04;;;;;;;7.60;6.55;;;;;;;11.08;72.44;101771.84;4978517;28;20502;-72
2022/06/03 02:50:40;;;;;;;9.18;7.30;;;;;;;11.03;73.70;101763.06;5003785;28;20096;-73
2022/06/03 02:53:31;;;;;;;7.68;6.38;;;;;;;10.99;72.67;101760.53;5007887;28;20441;-73
2022/06/03 02:56:07;;;;;;;9.63;6.68;;;;;;;10.98;73.19;101756.03;4994478;28;20038;-73
2022/06/03 02:58:43;;;;;;;10.05;7.15;;;;;;;10.95;75.02;101750.78;5003616;28;20054;-70
2022/06/03 03:01:27;;;;;;;8.50;6.95;;;;;;;10.93;72.84;101762.75;5001734;28;20453;-70
2022/06/03 03:04:10;;;;;;;7.80;6.57;;;;;;;10.94;73.13;101767.22;4997134;28;20061;-73
2022/06/03 03:06:41;;;;;;;;;;;;;;;10.99;71.29;101771.41;5008494;28;20111;-73
2022/06/03 03:09:38;;;;;;;7.05;5.78;;;;;;;10.95;73.43;101772.56;5008181;28;20012;-73
2022/06/03 03:12:34;;;;;;;7.35;6.28;;;;;;;10.93;72.87;101776.34;5000561;28;20065;-71
2022/06/03 03:15:37;;;;;;;9.75;6.70;;;;;;;10.90;72.35;101779.25;5004473;28;20042;-73
2022/06/03 03:18:32;;;;;;;9.35;7.35;;;;;;;10.85;74.03;101768.63;4989269;28;20030;-73
2022/06/03 03:21:06;;;;;;;10.15;7.40;;;;;;;10.82;74.41;101760.66;4991089;28;20027;-73
2022/06/03 03:23:38;;;;;;;10.38;7.38;;;;;;;10.79;75.39;101765.41;5002096;28;20442;-72
2022/06/03 03:26:24;;;;;;;8.95;7.25;;;;;;;10.77;73.94;101753.72;5003580;28;20034;-74
2022/06/03 03:28:55;;;;;;;7.47;6.70;;;;;;;10.77;73.60;101762.78;5002822;28;20034;-72
2022/06/03 03:32:12;;;;;;;9.70;7.40;;;;;;;10.77;73.19;101759.16;5003839;28;21888;-74
2022/06/03 03:34:56;;;;;;;8.80;7.10;;;;;;;10.75;74.04;101750.22;4948585;28;20079;-74
2022/06/03 03:37:45;;;;;;;9.20;6.45;;;;;;;10.70;74.17;101745.91;4990020;28;20543;-69
2022/06/03 03:40:42;;;;;;;9.52;7.18;;;;;;;10.65;74.49;101752.59;5005508;28;20041;-73
2022/06/03 03:43:10;;;;;;;8.50;6.80;;;;;;;10.60;75.59;101746.56;4994801;28;20531;-73
2022/06/03 03:45:41;;;;;;;11.30;7.78;;;;;;;10.57;76.17;101752.16;4988630;28;20065;-73
2022/06/03 03:48:47;;;;;;;8.68;7.30;;;;;;;10.58;74.68;101748.47;4994866;28;20041;-73
2022/06/03 03:51:28;;;;;;;11.07;7.85;;;;;;;10.57;74.79;101746.72;4989628;28;20038;-73
2022/06/03 03:54:18;;;;;;;7.63;6.70;;;;;;;10.55;75.01;101744.09;4992925;28;20036;-74
2022/06/03 03:57:21;;;;;;;12.23;8.13;;;;;;;10.57;75.29;101744.00;4995660;28;20126;-73
2022/06/03 04:00:12;;;;;;;10.50;7.75;;;;;;;10.57;74.88;101746.72;4988741;28;20074;-67
2022/06/03 04:03:05;;;;;;;9.40;7.75;;;;;;;10.56;75.86;101750.41;4993131;28;20035;-74
2022/06/03 04:05:48;;;;;;;9.40;8.23;;;;;;;10.54;76.13;101746.88;5006460;28;20092;-73
2022/06/03 04:08:55;;;;;;;12.18;8.02;;;;;;;10.56;74.85;101739.53;5007646;28;20077;-73
2022/06/03 04:11:54;;;;;;;11.13;8.07;;;;;;;10.54;75.32;101738.72;4960929;28;20061;-73
2022/06/03 04:14:32;;;;;;;10.25;7.93;;;;;;;10.53;75.90;101739.69;4988956;28;20465;-73
2022/06/03 04:17:29;;;;;;;11.63;7.72;;;;;;;10.57;74.77;101744.88;4999888;28;20034;-74
2022/06/03 04:20:08;;;;;;;8.65;7.68;;;;;;;10.61;75.59;101730.13;5005604;28;20493;-72
2022/06/03 04:22:59;;;;;;;8.43;7.57;;;;;;;10.62;75.73;101742.75;5002418;28;20366;-72
2022/06/03 04:26:02;;;;;;;10.65;7.97;;;;;;;10.65;75.22;101739.88;5002862;28;20113;-71
2022/06/03 04:28:43;;;;;;;11.90;8.35;;;;;;;10.67;75.96;101735.19;4988269;28;20044;-73
2022/06/03 04:31:48;;;;;;;11.52;8.23;;;;;;;10.70;75.13;101720.53;5000627;28;20126;-72
2022/06/03 04:34:41;;;;;;;10.63;8.13;;;;;;;10.69;76.85;101725.13;5000834;28;20495;-73
2022/06/03 04:37:28;;;;;;;10.40;8.13;;;;;;;10.72;75.41;101721.31;4987879;28;20042;-71
2022/06/03 04:40:32;;;;;;;12.15;8.82;;;;;;;10.77;75.73;101730.13;4985577;28;20042;-73
2022/06/03 04:43:12;;;;;;;8.95;7.65;;;;;;;10.78;75.93;101731.00;4937157;28;20046;-73
2022/06/03 04:46:07;;;;;;;14.00;9.40;;;;;;;10.82;76.33;101736.16;5003781;28;20030;-73
2022/06/03 04:49:07;;;;;;;10.00;8.55;;;;;;;10.87;75.77;101738.63;4996567;28;20049;-74
2022/06/03 04:52:13;;;;;;;10.55;7.95;;;;;;;10.92;75.77;101742.81;4986394;28;20038;-73
2022/06/03 04:54:57;;;;;;;10.75;8.73;;;;;;;10.97;75.93;101737.97;5004178;28;20038;-69
2022/06/03 04:57:53;;;;;;;11.30;8.90;;;;;;;11.01;75.88;101746.84;4986675;28;20038;-74
2022/06/03 05:00:25;;;;;;;10.55;8.82;;;;;;;11.06;76.34;101749.28;5006026;28;20096;-74
2022/06/03 05:03:02;;;;;;;12.37;9.90;;;;;;;11.09;77.32;101746.34;5000776;28;20042;-74
2022/06/03 05:05:53;;;;;;;12.77;9.52;;;;;;;11.11;77.72;101738.97;5007980;28;20295;-73
2022/06/03 05:08:30;;;;;;;12.27;9.80;;;;;;;11.16;77.16;101742.31;5010114;28;20520;-73
2022/06/03 05:11:36;;;;;;;12.07;10.05;;;;;;;11.21;75.61;101740.19;5007828;28;20434;-73
2022/06/03 05:14:20;;;;;;;13.18;9.55;;;;;;;11.29;76.09;101743.31;5005143;28;20042;-67
2022/06/03 05:17:06;;;;;;;11.43;9.43;;;;;;;11.35;75.43;101745.66;5000492;28;20034;-74
2022/06/03 05:19:56;;;;;;;13.55;10.15;;;;;;;11.42;75.79;101743.41;5004113;28;20365;-73
2022/06/03 05:22:47;;;;;;;19.15;10.82;;;;;;;11.49;76.57;101734.78;5009296;28;20034;-73
2022/06/03 05:25:28;;;;;;;12.45;10.32;;;;;;;11.56;76.37;101739.84;5009844;28;20046;-73
2022/06/03 05:28:12;;;;;;;16.20;10.20;;;;;;;11.61;75.91;101733.16;4984558;28;20033;-72
2022/06/03 05:31:07;;;;;;;15.88;11.02;;;;;;;11.64;76.68;101727.50;5007844;28;20144;-74
2022/06/03 05:34:01;;;;;;;16.15;11.00;;;;;;;11.68;75.92;101730.91;4992254;28;20077;-74
2022/06/03 05:36:42;;;;;;;11.02;9.40;;;;;;;11.78;75.48;101728.47;4994349;28;20553;-71
2022/06/03 05:39:28;;;;;;;12.68;10.45;;;;;;;11.83;75.26;101723.63;5005405;28;20053;-73
2022/06/03 05:42:28;;;;;;;11.40;9.43;;;;;;;11.91;74.03;101724.91;5009359;28;20420;-73
2022/06/03 05:45:27;;;;;;;12.55;9.57;;;;;;;11.98;74.42;101729.00;4998503;28;20048;-74
2022/06/03 05:48:01;;;;;;;12.23;10.43;;;;;;;12.05;75.34;101726.75;5005288;28;20029;-74
2022/06/03 05:50:57;;;;;;;12.02;9.65;;;;;;;12.13;73.16;101723.53;4990854;28;20147;-73
2022/06/03 05:53:39;;;;;;;12.00;10.48;;;;;;;12.21;73.22;101724.75;5008800;28;20100;-74
2022/06/03 05:56:40;;;;;;;11.98;9.50;;;;;;;12.31;73.34;101727.78;4984705;28;20490;-72
2022/06/03 05:59:29;;;;;;;16.00;10.38;;;;;;;12.38;72.42;101726.41;4973588;28;20128;-70
2022/06/03 06:02:18;;;;;;;16.05;9.32;;;;;;;12.45;73.14;101729.59;4998270;28;20774;-73
2022/06/03 06:04:55;;;;;;;12.93;11.05;;;;;;;12.51;71.92;101731.94;5000417;28;20030;-73
2022/06/03 06:07:33;;;;;;;12.73;10.55;;;;;;;12.52;73.78;101726.34;5008347;28;20481;-74
2022/06/03 06:10:21;;;;;;;13.32;10.65;;;;;;;12.60;74.25;101727.72;4995164;28;20042;-73
2022/06/03 06:12:58;;;;;;;14.55;11.80;;;;;;;12.66;73.90;101730.03;4978687;28;20038;-71
2022/06/03 06:15:52;;;;;;;18.67;10.88;;;;;;;12.75;72.55;101727.53;5004959;28;20485;-74
2022/06/03 06:18:41;;;;;;;14.27;11.23;;;;;;;12.83;74.15;101729.78;4999418;28;20038;-74
2022/06/03 06:21:21;;;;;;;13.18;10.85;;;;;;;12.90;73.38;101732.94;5008499;28;20116;-73
2022/06/03 06:24:05;;;;;;;13.25;10.82;;;;;;;12.96;72.44;101730.69;5005066;28;20033;-69
2022/06/03 06:27:04;;;;;;;14.15;9.98;;;;;;;13.07;72.26;101740.88;4987077;28;20489;-73
2022/06/03 06:29:29;;;;;;;14.30;11.55;;;;;;;13.17;71.22;101736.53;5007350;28;20037;-72
2022/06/03 06:32:24;;;;;;;13.73;10.57;;;;;;;13.24;71.65;101737.91;5000542;28;20421;-73
2022/06/03 06:35:11;;;;;;;13.63;9.93;;;;;;;13.31;71.41;101730.13;5003760;28;20103;-73
2022/06/03 06:37:51;;;;;;;13.23;10.32;;;;;;;13.39;72.32;101732.34;5008244;28;20042;-70
2022/06/03 06:40:23;;;;;;;11.98;10.32;;;;;;;13.49;70.87;101737.03;5007503;28;20061;-73
2022/06/03 06:42:48;;;;;;;15.90;10.27;;;;;;;13.57;69.69;101732.88;4989718;28;20033;-74
2022/06/03 06:45:29;;;;;;;16.77;10.02;;;;;;;13.63;70.71;101733.31;5007586;28;20099;-75
2022/06/03 06:48:19;;;;;;;11.75;9.45;;;;;;;13.70;70.14;101728.28;4986502;28;20405;-74
2022/06/03 06:50:49;;;;;;;12.35;9.75;;;;;;;13.73;70.69;101728.94;5007692;28;20034;-73
2022/06/03 06:53:40;;;;;;;12.23;9.48;;;;;;;13.81;70.94;101727.53;5007013;28;20132;-72
2022/06/03 06:56:34;;;;;;;14.80;10.73;;;;;;;13.89;69.68;101736.03;5007033;28;20205;-74
2022/06/03 06:59:06;;;;;;;13.65;9.20;;;;;;;13.96;68.75;101735.50;5005383;28;20045;-73
2022/06/03 07:01:40;;;;;;;10.60;9.27;;;;;;;14.04;68.89;101730.34;5004294;28;20144;-72
2022/06/03 07:04:27;;;;;;;10.35;8.90;;;;;;;14.12;67.87;101731.63;4985467;28;20517;-73
2022/06/03 07:07:13;;;;;;;10.93;9.63;;;;;;;14.20;68.09;101731.97;5004181;28;20502;-72
2022/06/03 07:10:02;;;;;;;12.02;10.02;;;;;;;14.28;68.07;101735.00;5004070;28;20034;-72
2022/06/03 07:12:47;;;;;;;13.00;9.65;;;;;;;14.36;67.30;101734.41;5003499;28;20056;-71
2022/06/03 07:15:31;;;;;;;12.48;10.23;;;;;;;14.44;68.03;101732.88;5006256;28;20116;-70
2022/06/03 07:21:07;;;;;;;12.07;9.07;;;;;;;14.80;66.39;101728.38;5004937;28;20481;-71
2022/06/03 07:23:47;;;;;;;11.15;8.63;;;;;;;15.04;65.42;101715.53;4988103;28;20132;-70
2022/06/03 07:26:33;;;;;;;12.98;8.75;;;;;;;15.26;65.46;101720.22;5001970;28;20038;-72
2022/06/03 07:29:11;;;;;;;12.57;9.85;;;;;;;15.30;64.55;101718.13;5003059;28;20076;-70
2022/06/03 07:31:47;;;;;;;11.48;9.73;;;;;;;15.40;65.42;101707.31;5000800;28;20124;-74
2022/06/03 07:34:19;;;;;;;13.32;9.07;;;;;;;15.44;65.12;101706.94;4996816;28;20444;-74
2022/06/03 07:37:00;;;;;;;13.25;9.57;;;;;;;15.50;64.80;101716.56;5006494;28;20103;-71
2022/06/03 07:39:43;;;;;;;10.23;9.00;;;;;;;15.55;65.41;101712.44;5003604;28;20107;-74
2022/06/03 07:42:29;;;;;;;10.90;9.48;;;;;;;15.57;64.25;101710.47;5006017;28;20303;-74
2022/06/03 07:45:01;;;;;;;10.13;8.45;;;;;;;15.69;64.26;101716.00;4993865;28;20170;-74
2022/06/03 07:47:28;;;;;;;12.83;9.07;;;;;;;15.73;63.81;101712.00;4983820;28;20064;-71
2022/06/03 07:50:03;;;;;;;11.95;8.85;;;;;;;15.80;63.43;101708.63;4994300;28;20033;-74
2022/06/03 07:52:46;;;;;;;11.40;9.25;;;;;;;15.93;65.20;101702.16;4984079;28;20113;-73
2022/06/03 07:55:23;;;;;;;11.32;9.82;;;;;;;16.03;62.58;101693.03;4998292;28;20080;-74
2022/06/03 07:57:51;;;;;;;13.43;9.88;;;;;;;16.16;61.20;101700.28;5003150;28;20046;-73
2022/06/03 08:00:19;;;;;;;13.77;10.13;;;;;;;16.32;61.83;101709.00;5003393;28;20041;-68
2022/06/03 08:02:44;;;;;;;10.88;9.38;;;;;;;16.63;62.33;101714.66;4999745;28;20034;-71
2022/06/03 08:05:17;;;;;;;10.98;9.25;;;;;;;17.26;62.03;101713.81;5004507;28;20111;-73
2022/06/03 08:10:56;;;;;;;9.65;8.40;;;;;;;19.15;58.69;101697.56;4995762;28;20041;-74
2022/06/03 08:13:23;;;;;;;11.57;9.15;;;;;;;19.43;52.11;101690.28;5004480;28;20045;-74
2022/06/03 08:15:59;;;;;;;14.20;8.85;;;;;;;19.86;54.34;101687.00;5000259;28;20425;-74
2022/06/03 08:18:29;;;;;;;10.10;7.65;;;;;;;20.30;53.78;101681.69;4988775;28;20421;-74
2022/06/03 08:20:59;;;;;;;9.40;8.50;;;;;;;20.82;50.60;101670.91;5004020;28;20034;-73
2022/06/03 08:23:30;;;;;;;8.98;8.07;;;;;;;21.32;51.61;101661.16;5004894;28;20570;-74
2022/06/03 08:25:58;;;;;;;11.80;8.07;;;;;;;21.69;46.88;101666.44;5006281;28;20038;-74
2022/06/03 08:28:27;;;;;;;9.27;7.15;;;;;;;21.69;46.46;101662.81;5000525;28;20435;-75
2022/06/03 08:30:55;;;;;;;7.95;7.25;;;;;;;21.34;48.25;101667.41;5005661;28;20842;-71
2022/06/03 08:33:29;;;;;;;9.02;6.95;;;;;;;21.94;48.50;101664.66;4997359;28;20393;-74
2022/06/03 08:35:54;;;;;;;9.18;6.97;;;;;;;22.32;47.43;101670.75;5006903;28;20061;-73
2022/06/03 08:38:27;;;;;;;7.20;6.47;;;;;;;22.66;47.31;101666.00;5004509;28;20482;-71
2022/06/03 08:40:57;;;;;;;10.45;7.13;;;;;;;22.74;49.43;101672.59;5010113;28;20612;-74
2022/06/03 08:43:48;;;;;;;10.65;6.90;;;;;;;22.73;48.13;101671.72;5009519;28;20478;-74
2022/06/03 08:46:27;;;;;;;10.45;7.60;;;;;;;22.78;46.17;101663.75;5006717;28;20129;-71
2022/06/03 08:49:01;;;;;;;8.65;6.50;;;;;;;22.85;46.71;101659.28;4992007;28;20532;-74
2022/06/03 08:51:40;;;;;;;8.70;6.82;;;;;;;23.29;46.31;101671.97;4999678;28;20042;-73
2022/06/03 08:54:27;;;;;;;8.85;6.03;;;;;;;23.38;45.92;101668.16;5005748;28;20045;-74
2022/06/03 08:56:57;;;;;;;8.00;6.45;;;;;;;23.90;45.66;101676.94;5004616;28;20427;-71
2022/06/03 08:59:57;;;;;;;7.57;6.78;;;;;;;24.17;43.31;101660.88;5003178;28;20058;-74
2022/06/03 09:02:31;;;;;;;9.50;6.50;;;;;;;24.34;42.50;101668.09;4999092;28;20129;-71
2022/06/03 09:05:14;;;;;;;7.03;6.32;;;;;;;24.63;42.33;101666.56;5003526;28;20042;-75
2022/06/03 09:07:52;;;;;;;10.40;6.50;;;;;;;24.74;40.92;101668.91;4991836;28;20042;-74
2022/06/03 09:10:25;;;;;;;7.40;6.07;;;;;;;24.21;38.99;101656.69;5010160;28;20504;-74
2022/06/03 09:12:56;;;;;;;6.65;5.15;;;;;;;24.16;42.18;101670.25;5005092;28;20107;-73
2022/06/03 09:15:25;;;;;;;6.88;5.80;;;;;;;24.35;40.43;101663.41;4990752;28;20053;-74
2022/06/03 09:18:03;;;;;;;10.95;6.30;;;;;;;24.08;39.31;101661.94;4972056;28;20038;-73
2022/06/03 09:20:45;;;;;;;6.45;5.57;;;;;;;24.31;43.22;101662.03;4990178;28;20445;-74
2022/06/03 09:23:16;;;;;;;7.97;5.85;;;;;;;24.50;39.08;101661.59;5007392;28;20548;-74
2022/06/03 09:25:51;;;;;;;11.65;5.43;;;;;;;24.71;42.22;101660.94;4998821;28;20034;-68
2022/06/03 09:28:36;;;;;;;9.55;5.05;;;;;;;24.73;41.01;101660.75;4997113;28;20153;-72
2022/06/03 09:31:07;;;;;;;7.97;5.35;;;;;;;25.01;40.29;101672.22;4999247;28;20473;-74
2022/06/03 09:33:34;;;;;;;6.20;5.10;;;;;;;25.15;37.31;101663.94;4997478;28;20038;-75
2022/06/03 09:36:05;;;;;;;8.68;5.18;;;;;;;24.89;38.35;101660.63;5009137;28;20037;-73
2022/06/03 09:38:42;;;;;;;5.55;4.22;;;;;;;25.16;38.07;101665.69;5001008;28;20034;-74
2022/06/03 09:41:09;;;;;;;5.07;4.20;;;;;;;25.15;36.68;101649.16;5007221;28;20064;-74
2022/06/03 09:43:38;;;;;;;7.70;4.25;;;;;;;25.17;37.44;101649.81;5007632;28;20054;-72
2022/06/03 09:46:08;;;;;;;6.90;5.00;;;;;;;24.84;35.08;101647.28;5002801;28;20496;-73
2022/06/03 09:48:36;;;;;;;4.93;4.43;;;;;;;24.62;35.03;101643.44;4988572;28;20773;-73
2022/06/03 09:51:19;;;;;;;4.45;4.05;;;;;;;24.76;38.13;101650.13;5005318;28;20042;-72
2022/06/03 09:53:45;;;;;;;9.93;4.28;;;;;;;24.79;36.77;101649.75;5009213;28;20034;-69
2022/06/03 09:56:26;;;;;;;3.63;3.08;;;;;;;25.23;39.63;101653.78;5004708;28;20029;-73
2022/06/03 09:58:59;;;;;;;5.15;3.15;;;;;;;25.58;38.22;101641.09;5008064;28;20133;-74
2022/06/03 10:01:26;;;;;;;3.40;3.10;;;;;;;25.69;36.36;101635.03;4996419;28;20030;-73
2022/06/03 10:03:56;;;;;;;4.25;3.50;;;;;;;25.76;35.49;101640.75;4994381;28;20110;-72
2022/06/03 10:14:33;;;;;;;4.38;3.33;;;;;;;26.80;34.51;101628.34;4998912;28;20107;-70
2022/06/03 10:16:58;;;;;;;8.48;4.28;;;;;;;26.62;30.86;101630.72;5001404;28;20453;-72
2022/06/03 10:19:23;;;;;;;7.32;3.70;;;;;;;26.39;33.97;101630.84;4987995;28;20033;-72
2022/06/03 10:21:53;;;;;;;4.57;3.35;;;;;;;26.68;34.67;101628.03;5007890;28;20063;-73
2022/06/03 10:24:28;;;;;;;3.88;3.40;;;;;;;27.00;35.15;101620.19;4994923;28;20105;-73
2022/06/03 10:26:59;;;;;;;5.72;3.40;;;;;;;26.77;32.07;101625.13;5006450;28;20030;-70
2022/06/03 10:29:25;;;;;;;5.32;3.40;;;;;;;26.51;33.61;101608.94;4989761;28;20486;-73
2022/06/03 10:32:06;;;;;;;4.05;3.58;;;;;;;26.15;34.62;101610.59;5003988;28;20452;-73
2022/06/03 10:34:38;;;;;;;4.18;2.90;;;;;;;26.03;35.09;101609.41;5000851;28;20044;-74
2022/06/03 10:37:08;;;;;;;3.63;2.70;;;;;;;26.49;35.44;101600.78;5007554;28;20072;-72
2022/06/03 10:39:33;;;;;;;5.25;3.13;;;;;;;26.80;34.22;101608.81;4996244;28;20505;-73
2022/06/03 10:41:59;;;;;;;7.55;4.05;;;;;;;26.62;34.35;101603.69;5004685;28;20161;-72
2022/06/03 10:44:36;;;;;;;5.55;3.80;;;;;;;26.51;34.20;101607.00;5006618;28;20085;-70
2022/06/03 10:47:15;;;;;;;5.30;3.10;;;;;;;26.68;35.27;101602.91;5002870;28;20059;-72
2022/06/03 10:49:54;;;;;;;4.55;3.38;;;;;;;26.33;32.82;101614.91;5000685;28;20044;-73
2022/06/03 11:03:32;;;;;;;2.38;2.05;;;;;;;28.12;29.62;101606.19;4993088;28;20050;-73
2022/06/03 11:06:05;;;;;;;3.85;2.10;;;;;;;28.42;32.13;101591.91;5007605;28;20488;-72
2022/06/03 11:08:51;;;;;;;2.90;2.17;;;;;;;28.51;31.34;101599.03;4989803;28;20041;-73
2022/06/03 11:11:42;;;;;;;1.95;1.75;;;;;;;28.76;31.46;101590.91;5005888;28;20026;-67
2022/06/03 11:14:39;;;;;;;3.37;2.40;;;;;;;28.40;30.74;101592.13;5005014;28;20034;-72
2022/06/03 11:17:06;;;;;;;3.50;1.75;;;;;;;27.83;28.73;101587.75;4992271;28;20399;-72
2022/06/03 11:19:36;;;;;;;1.98;1.83;;;;;;;27.71;29.46;101592.19;5002757;28;20041;-70
2022/06/03 11:22:34;;;;;;;2.83;2.20;;;;;;;27.45;30.82;101585.31;5007122;28;20034;-72
2022/06/03 11:25:21;;;;;;;4.05;1.90;;;;;;;27.70;31.77;101588.53;4982005;28;20046;-72
2022/06/03 11:28:07;;;;;;;3.63;1.98;;;;;;;28.31;33.23;101582.16;4995909;28;20034;-72
2022/06/03 11:30:44;;;;;;;2.78;1.63;;;;;;;28.21;32.54;101576.97;5006949;28;20045;-71
2022/06/03 11:33:16;;;;;;;2.10;1.95;;;;;;;27.82;29.23;101580.44;4996505;28;20061;-71
2022/06/03 11:35:50;;;;;;;3.15;1.85;;;;;;;27.65;30.95;101574.31;5002637;28;20440;-72
2022/06/03 11:38:28;;;;;;;2.33;1.98;;;;;;;27.67;30.30;101565.69;4998880;28;20104;-72
2022/06/03 11:40:57;;;;;;;2.65;1.63;;;;;;;28.02;31.88;101562.88;5002526;28;20125;-73
2022/06/03 11:43:46;;;;;;;2.10;1.90;;;;;;;28.41;30.99;101570.59;5006406;28;20072;-73
2022/06/03 11:46:18;;;;;;;1.70;1.60;;;;;;;28.54;29.03;101578.13;5004276;28;20041;-72
2022/06/03 11:48:45;;;;;;;2.70;1.77;;;;;;;28.66;30.53;101570.84;5000696;28;20037;-73
2022/06/03 11:51:12;;;;;;;2.88;1.98;;;;;;;28.71;28.40;101568.28;5006254;28;20083;-72
2022/06/03 11:53:47;;;;;;;2.92;1.70;;;;;;;28.42;29.09;101572.31;5004608;28;20053;-72
2022/06/03 11:56:15;;;;;;;4.63;2.05;;;;;;;28.15;26.04;101569.38;4994623;28;20029;-71
2022/06/03 11:59:07;;;;;;;2.13;1.48;;;;;;;28.22;30.88;101578.69;4997476;28;20555;-72
2022/06/03 12:01:45;;;;;;;2.33;1.75;;;;;;;28.07;28.73;101580.78;4999577;28;20049;-72
2022/06/03 12:04:51;;;;;;;2.22;1.63;;;;;;;28.29;30.72;101577.84;4996960;28;20034;-72
2022/06/03 12:07:44;;;;;;;2.25;1.90;;;;;;;28.77;31.50;101588.94;5002554;28;20537;-73
2022/06/03 12:10:23;;;;;;;3.58;1.90;;;;;;;28.96;29.49;101586.22;4993750;28;20065;-72
2022/06/03 12:13:15;;;;;;;2.30;2.10;;;;;;;29.15;29.45;101586.44;5001468;28;20026;-72
2022/06/03 12:15:42;;;;;;;2.63;2.28;;;;;;;29.16;26.25;101577.81;5006475;28;20041;-71
2022/06/03 12:18:09;;;;;;;3.53;1.80;;;;;;;29.31;26.70;101580.38;4994224;28;20042;-71
2022/06/03 12:20:43;;;;;;;2.38;1.92;;;;;;;29.43;27.59;101564.63;5004268;28;20060;-72
2022/06/03 12:23:12;;;;;;;2.20;1.92;;;;;;;29.61;27.85;101569.59;4996600;28;20090;-73
2022/06/03 12:25:46;;;;;;;3.25;1.70;;;;;;;29.66;24.80;101568.94;4994606;28;20123;-72
2022/06/03 12:28:30;;;;;;;3.28;2.10;;;;;;;29.47;25.39;101565.03;5006389;28;20038;-70
2022/06/03 12:31:10;;;;;;;3.03;1.90;;;;;;;29.04;26.38;101564.66;5003158;28;20033;-71
2022/06/03 12:33:53;;;;;;;3.55;1.98;;;;;;;29.18;27.43;101558.81;4996312;28;20042;-72
2022/06/03 12:36:37;;;;;;;2.35;1.52;;;;;;;29.29;28.01;101557.34;5001981;28;20026;-71
2022/06/03 12:39:04;;;;;;;3.03;2.20;;;;;;;29.28;26.40;101555.59;4986411;28;20038;-72
2022/06/03 12:41:45;;;;;;;2.83;2.63;;;;;;;28.73;27.38;101555.78;4988909;28;20061;-72
2022/06/03 12:44:48;;;;;;;4.15;2.60;;;;;;;28.59;28.90;101548.44;4975620;28;20046;-72
2022/06/03 12:47:31;;;;;;;2.92;2.20;;;;;;;28.90;29.44;101552.56;4992595;28;20033;-72
2022/06/03 12:50:24;;;;;;;2.50;2.22;;;;;;;28.65;28.42;101557.94;5004455;28;20037;-71
2022/06/03 12:52:58;;;;;;;5.25;2.88;;;;;;;28.54;25.46;101552.94;5004213;28;20120;-72
2022/06/03 12:55:36;;;;;;;3.55;2.90;;;;;;;28.68;26.17;101543.50;5002699;28;20034;-71
2022/06/03 12:58:30;;;;;;;2.72;2.08;;;;;;;29.26;29.51;101551.28;5005851;28;20121;-72